createdAt,value
2023-04-13T00:00:49.170Z,6.01
2023-04-13T00:03:15.683Z,5.86
2023-04-13T00:05:41.971Z,5.91
2023-04-13T00:08:08.272Z,5.86
2023-04-13T00:10:34.681Z,5.82
2023-04-13T00:13:01.101Z,5.78
2023-04-13T00:15:27.513Z,5.89
2023-04-13T00:17:54.066Z,5.74
2023-04-13T00:20:20.347Z,5.67
2023-04-13T00:22:46.809Z,5.67
2023-04-13T00:25:13.177Z,5.62
2023-04-13T00:27:39.608Z,5.56
2023-04-13T00:30:06.121Z,5.38
2023-04-13T00:32:32.538Z,5.20
2023-04-13T00:34:58.936Z,5.19
2023-04-13T00:37:25.395Z,5.27
2023-04-13T00:39:53.924Z,5.33
2023-04-13T00:42:20.299Z,5.41
2023-04-13T00:44:46.719Z,5.45
2023-04-13T00:47:13.132Z,5.42
2023-04-13T00:49:39.495Z,5.43
2023-04-13T00:52:05.876Z,5.26
2023-04-13T00:54:32.289Z,5.23
2023-04-13T00:56:58.703Z,5.28
2023-04-13T00:59:25.066Z,5.37
2023-04-13T01:01:51.532Z,5.44
2023-04-13T01:04:17.893Z,5.45
2023-04-13T01:06:44.249Z,5.26
2023-04-13T01:09:10.616Z,5.31
2023-04-13T01:11:37.037Z,5.38
2023-04-13T01:14:03.394Z,5.46
2023-04-13T01:16:34.775Z,5.43
2023-04-13T01:21:45.425Z,5.46
2023-04-13T01:24:14.325Z,5.58
2023-04-13T01:26:40.779Z,5.57
2023-04-13T01:29:07.175Z,5.53
2023-04-13T01:31:33.712Z,5.57
2023-04-13T01:34:00.284Z,5.45
2023-04-13T01:36:26.362Z,5.49
2023-04-13T01:38:52.740Z,5.50
2023-04-13T01:41:19.114Z,5.43
2023-04-13T01:43:46.968Z,5.45
2023-04-13T01:46:13.330Z,5.52
2023-04-13T01:48:39.760Z,5.55
2023-04-13T01:51:06.170Z,5.50
2023-04-13T01:53:32.605Z,5.47
2023-04-13T01:55:58.976Z,5.44
2023-04-13T01:58:25.372Z,5.43
2023-04-13T02:00:52.137Z,5.45
2023-04-13T02:03:18.567Z,5.49
2023-04-13T02:05:45.282Z,5.49
2023-04-13T02:08:11.630Z,5.48
2023-04-13T02:10:38.087Z,5.54
2023-04-13T02:13:04.510Z,5.56
2023-04-13T02:15:30.867Z,5.63
2023-04-13T02:17:57.416Z,5.58
2023-04-13T02:20:23.776Z,5.57
2023-04-13T02:22:50.185Z,5.54
2023-04-13T02:25:16.640Z,5.57
2023-04-13T02:27:43.061Z,5.49
2023-04-13T02:30:09.486Z,5.46
2023-04-13T02:32:36.017Z,5.48
2023-04-13T02:35:02.325Z,5.47
2023-04-13T02:37:30.902Z,5.49
2023-04-13T02:39:57.789Z,5.25
2023-04-13T02:42:24.196Z,5.00
2023-04-13T02:44:50.556Z,5.06
2023-04-13T02:47:17.019Z,5.07
2023-04-13T02:49:43.351Z,4.99
2023-04-13T02:52:09.761Z,5.02
2023-04-13T02:54:36.211Z,5.06
2023-04-13T02:57:02.633Z,4.99
2023-04-13T02:59:29.109Z,4.77
2023-04-13T03:01:55.515Z,4.34
2023-04-13T03:04:21.889Z,4.22
2023-04-13T03:06:48.257Z,4.04
2023-04-13T03:09:14.651Z,3.95
2023-04-13T03:11:42.381Z,3.73
2023-04-13T03:14:07.515Z,3.55
2023-04-13T03:16:33.935Z,3.44
2023-04-13T03:19:00.278Z,3.39
2023-04-13T03:21:26.655Z,3.42
2023-04-13T03:23:53.017Z,3.47
2023-04-13T03:26:19.418Z,3.53
2023-04-13T03:28:45.950Z,3.59
2023-04-13T03:31:12.341Z,3.61
2023-04-13T03:33:38.804Z,3.67
2023-04-13T03:36:05.243Z,3.67
2023-04-13T03:38:31.638Z,3.60
2023-04-13T03:40:58.054Z,3.37
2023-04-13T03:43:24.461Z,3.44
2023-04-13T03:45:50.986Z,3.42
2023-04-13T03:48:17.322Z,3.34
2023-04-13T03:50:43.749Z,3.40
2023-04-13T03:53:10.104Z,3.37
2023-04-13T03:55:36.498Z,3.40
2023-04-13T03:58:02.862Z,3.40
2023-04-13T04:00:30.423Z,3.64
2023-04-13T04:02:56.871Z,3.58
2023-04-13T04:05:23.247Z,3.62
2023-04-13T04:07:49.677Z,3.71
2023-04-13T04:10:15.995Z,4.07
2023-04-13T04:12:42.361Z,4.55
2023-04-13T04:15:08.786Z,4.92
2023-04-13T04:17:35.746Z,5.04
2023-04-13T04:20:02.630Z,5.39
2023-04-13T04:22:29.036Z,5.68
2023-04-13T04:24:55.435Z,5.95
2023-04-13T04:27:21.865Z,6.46
2023-04-13T04:29:48.221Z,6.64
2023-04-13T04:32:14.711Z,6.82
2023-04-13T04:34:41.042Z,6.93
2023-04-13T04:37:19.681Z,7.20
2023-04-13T04:39:33.824Z,7.59
2023-04-13T04:42:00.236Z,7.87
2023-04-13T04:44:26.640Z,7.73
2023-04-13T04:46:53.105Z,8.08
2023-04-13T04:49:19.458Z,8.37
2023-04-13T04:51:45.882Z,8.75
2023-04-13T04:54:12.238Z,8.62
2023-04-13T04:56:38.632Z,8.33
2023-04-13T04:59:05.006Z,8.70
2023-04-13T05:01:31.455Z,9.28
2023-04-13T05:03:57.968Z,9.54
2023-04-13T05:06:24.383Z,9.45
2023-04-13T05:08:50.806Z,9.90
2023-04-13T05:11:17.225Z,10.17
2023-04-13T05:13:43.833Z,10.41
2023-04-13T05:16:10.436Z,10.43
2023-04-13T05:18:36.815Z,10.44
2023-04-13T05:21:03.168Z,10.05
2023-04-13T05:23:29.722Z,9.91
2023-04-13T05:25:56.096Z,10.23
2023-04-13T05:28:22.536Z,10.58
2023-04-13T05:30:49.240Z,10.74
2023-04-13T05:33:15.611Z,11.13
2023-04-13T05:35:42.144Z,11.59
2023-04-13T05:38:08.508Z,12.03
2023-04-13T05:40:34.939Z,12.80
2023-04-13T05:43:01.342Z,12.97
2023-04-13T05:45:27.734Z,13.24
2023-04-13T05:47:54.183Z,13.65
2023-04-13T05:50:20.509Z,13.84
2023-04-13T05:52:47.017Z,13.75
2023-04-13T05:55:13.425Z,13.71
2023-04-13T05:57:40.017Z,13.98
2023-04-13T06:00:06.491Z,13.98
2023-04-13T06:02:33.019Z,14.18
2023-04-13T06:04:59.630Z,13.88
2023-04-13T06:07:25.815Z,13.54
2023-04-13T06:09:52.190Z,14.08
2023-04-13T06:12:18.553Z,14.01
2023-04-13T06:14:44.983Z,14.26
2023-04-13T06:17:11.458Z,14.80
2023-04-13T06:19:37.759Z,14.78
2023-04-13T06:22:04.162Z,14.96
2023-04-13T06:24:30.575Z,15.62
2023-04-13T06:26:56.990Z,15.45
2023-04-13T06:29:23.618Z,15.46
2023-04-13T06:31:50.028Z,15.18
2023-04-13T06:34:16.426Z,15.41
2023-04-13T06:36:42.905Z,15.71
2023-04-13T06:39:09.331Z,15.80
2023-04-13T06:41:35.756Z,15.84
2023-04-13T06:44:02.266Z,16.01
2023-04-13T06:46:28.819Z,16.48
2023-04-13T06:48:55.381Z,16.75
2023-04-13T06:51:21.820Z,16.57
2023-04-13T06:53:48.202Z,16.29
2023-04-13T06:56:14.561Z,16.57
2023-04-13T06:58:41.002Z,16.61
2023-04-13T07:01:07.595Z,16.67
2023-04-13T07:03:34.058Z,16.57
2023-04-13T07:06:00.211Z,16.54
2023-04-13T07:08:26.573Z,16.28
2023-04-13T07:10:53.009Z,16.34
2023-04-13T07:13:19.376Z,16.42
2023-04-13T07:15:45.768Z,16.81
2023-04-13T07:18:12.135Z,16.82
2023-04-13T07:20:38.559Z,16.74
2023-04-13T07:23:04.970Z,17.37
2023-04-13T07:25:31.380Z,17.14
2023-04-13T07:27:57.788Z,17.47
2023-04-13T07:30:24.215Z,17.64
2023-04-13T07:32:50.787Z,17.99
2023-04-13T07:35:17.195Z,18.33
2023-04-13T07:37:43.581Z,17.99
2023-04-13T07:40:09.993Z,17.59
2023-04-13T07:42:36.427Z,17.66
2023-04-13T07:45:03.609Z,17.49
2023-04-13T07:47:30.052Z,18.20
2023-04-13T07:49:56.400Z,18.38
2023-04-13T07:52:22.819Z,17.87
2023-04-13T07:54:49.409Z,18.09
2023-04-13T07:57:15.813Z,18.76
2023-04-13T07:59:42.226Z,18.69
2023-04-13T08:02:08.737Z,18.81
2023-04-13T08:04:35.469Z,18.82
2023-04-13T08:07:01.685Z,18.62
2023-04-13T08:09:28.076Z,19.05
2023-04-13T08:11:54.576Z,19.25
2023-04-13T08:14:21.198Z,19.18
2023-04-13T08:16:47.711Z,19.13
2023-04-13T08:19:14.015Z,19.10
2023-04-13T08:21:40.413Z,19.79
2023-04-13T08:24:06.851Z,20.29
2023-04-13T08:26:33.209Z,20.59
2023-04-13T08:29:00.117Z,20.49
2023-04-13T08:31:26.341Z,20.57
2023-04-13T08:33:52.693Z,20.54
2023-04-13T08:36:19.080Z,20.39
2023-04-13T08:38:45.506Z,20.49
2023-04-13T08:41:11.913Z,20.61
2023-04-13T08:43:38.305Z,20.74
2023-04-13T08:46:04.801Z,20.85
2023-04-13T08:48:36.370Z,20.65
2023-04-13T08:50:57.595Z,20.72
2023-04-13T08:53:23.963Z,20.94
2023-04-13T08:55:50.335Z,20.56
2023-04-13T08:58:16.716Z,20.69
2023-04-13T09:00:43.137Z,21.00
2023-04-13T09:03:13.971Z,21.20
2023-04-13T09:05:36.976Z,21.68
2023-04-13T09:08:03.432Z,21.50
2023-04-13T09:10:29.834Z,21.89
2023-04-13T09:12:56.238Z,22.16
2023-04-13T09:15:22.621Z,22.64
2023-04-13T09:17:49.102Z,22.56
2023-04-13T09:20:15.418Z,22.01
2023-04-13T09:22:41.830Z,22.18
2023-04-13T09:25:08.204Z,22.21
2023-04-13T09:27:34.598Z,22.12
2023-04-13T09:30:01.070Z,22.08
2023-04-13T09:32:27.431Z,22.96
2023-04-13T09:34:54.162Z,23.17
2023-04-13T09:37:20.702Z,22.68
2023-04-13T09:39:47.130Z,22.45
2023-04-13T09:42:13.514Z,22.84
2023-04-13T09:44:39.924Z,23.39
2023-04-13T09:47:06.567Z,22.75
2023-04-13T09:49:32.934Z,22.45
2023-04-13T09:51:59.347Z,23.13
2023-04-13T09:54:25.750Z,23.67
2023-04-13T09:56:52.596Z,24.17
2023-04-13T09:59:18.971Z,24.31
2023-04-13T10:01:45.939Z,24.58
2023-04-13T10:04:12.220Z,24.03
2023-04-13T10:06:38.752Z,23.63
2023-04-13T10:09:05.166Z,23.79
2023-04-13T10:11:31.533Z,23.87
2023-04-13T10:13:58.369Z,24.23
2023-04-13T10:16:24.701Z,24.51
2023-04-13T10:18:51.036Z,24.37
2023-04-13T10:21:17.376Z,23.83
2023-04-13T10:23:44.088Z,23.64
2023-04-13T10:26:10.580Z,23.63
2023-04-13T10:28:36.956Z,23.89
2023-04-13T10:31:03.375Z,24.58
2023-04-13T10:33:29.959Z,25.14
2023-04-13T10:35:56.351Z,25.15
2023-04-13T10:38:22.759Z,25.16
2023-04-13T10:40:49.169Z,25.65
2023-04-13T10:43:15.559Z,25.49
2023-04-13T10:45:41.944Z,25.54
2023-04-13T10:48:08.347Z,25.16
2023-04-13T10:50:34.765Z,25.32
2023-04-13T10:53:01.151Z,25.57
2023-04-13T10:55:27.938Z,25.19
2023-04-13T10:57:54.449Z,25.45
2023-04-13T11:00:20.833Z,25.85
2023-04-13T11:02:47.497Z,25.39
2023-04-13T11:05:13.625Z,24.37
2023-04-13T11:07:40.016Z,24.23
2023-04-13T11:10:06.782Z,24.61
2023-04-13T11:12:32.859Z,24.74
2023-04-13T11:14:59.288Z,24.03
2023-04-13T11:17:25.818Z,24.41
2023-04-13T11:19:52.118Z,24.92
2023-04-13T11:22:18.913Z,24.91
2023-04-13T11:24:45.380Z,24.70
2023-04-13T11:27:11.930Z,25.10
2023-04-13T11:29:38.302Z,24.89
2023-04-13T11:32:04.867Z,24.83
2023-04-13T11:34:31.260Z,24.13
2023-04-13T11:36:57.621Z,23.66
2023-04-13T11:39:24.006Z,23.62
2023-04-13T11:41:50.464Z,23.92
2023-04-13T11:44:16.886Z,24.14
2023-04-13T11:46:43.416Z,23.92
2023-04-13T11:49:09.711Z,23.72
2023-04-13T11:51:36.109Z,23.56
2023-04-13T11:54:02.837Z,23.72
2023-04-13T11:56:29.221Z,24.01
2023-04-13T11:58:58.270Z,24.56
2023-04-13T12:01:27.189Z,24.43
2023-04-13T12:04:04.155Z,24.07
2023-04-13T12:06:17.919Z,23.88
2023-04-13T12:08:44.286Z,24.01
2023-04-13T12:13:38.015Z,24.20
2023-04-13T12:16:09.407Z,24.14
2023-04-13T12:18:36.651Z,24.65
2023-04-13T12:20:56.246Z,24.37
2023-04-13T12:23:23.888Z,23.73
2023-04-13T12:25:49.863Z,23.52
2023-04-13T12:28:15.534Z,23.62
2023-04-13T12:30:41.913Z,23.72
2023-04-13T12:33:08.377Z,24.04
2023-04-13T12:35:34.743Z,24.19
2023-04-13T12:38:01.119Z,24.58
2023-04-13T12:40:27.532Z,24.63
2023-04-13T12:42:53.950Z,24.58
2023-04-13T12:45:20.329Z,24.93
2023-04-13T12:47:46.919Z,25.04
2023-04-13T12:50:13.176Z,24.57
2023-04-13T12:52:39.588Z,24.10
2023-04-13T12:55:05.972Z,23.56
2023-04-13T12:57:32.463Z,23.62
2023-04-13T12:59:58.773Z,23.84
2023-04-13T13:02:25.231Z,23.38
2023-04-13T13:04:51.771Z,22.90
2023-04-13T13:07:18.454Z,22.94
2023-04-13T13:09:44.842Z,22.67
2023-04-13T13:12:11.255Z,22.57
2023-04-13T13:14:37.749Z,22.69
2023-04-13T13:17:04.111Z,22.51
2023-04-13T13:19:30.492Z,22.50
2023-04-13T13:21:57.964Z,22.63
2023-04-13T13:24:24.321Z,22.71
2023-04-13T13:27:12.114Z,22.47
2023-04-13T13:29:17.410Z,22.49
2023-04-13T13:31:44.041Z,22.22
2023-04-13T13:34:10.375Z,21.93
2023-04-13T13:36:36.795Z,21.81
2023-04-13T13:39:03.262Z,21.73
2023-04-13T13:41:29.658Z,21.60
2023-04-13T13:43:56.045Z,21.54
2023-04-13T13:46:22.487Z,21.73
2023-04-13T13:48:48.825Z,21.76
2023-04-13T13:51:15.268Z,21.76
2023-04-13T13:53:41.632Z,21.57
2023-04-13T13:56:08.052Z,21.57
2023-04-13T13:58:34.414Z,21.55
2023-04-13T14:01:01.173Z,21.56
2023-04-13T14:03:27.580Z,21.69
2023-04-13T14:05:53.922Z,21.78
2023-04-13T14:08:21.473Z,21.69
2023-04-13T14:10:47.886Z,21.73
2023-04-13T14:13:14.343Z,21.63
2023-04-13T14:15:40.774Z,21.60
2023-04-13T14:18:11.298Z,21.57
2023-04-13T14:20:34.653Z,21.59
2023-04-13T14:23:01.068Z,21.63
2023-04-13T14:25:27.498Z,21.78
2023-04-13T14:27:53.955Z,21.84
2023-04-13T14:30:20.373Z,21.87
2023-04-13T14:32:46.821Z,21.92
2023-04-13T14:35:13.381Z,22.02
2023-04-13T14:37:39.797Z,22.15
2023-04-13T14:40:06.281Z,22.12
2023-04-13T14:42:33.064Z,22.00
2023-04-13T14:44:59.448Z,21.88
2023-04-13T14:47:25.918Z,21.91
2023-04-13T14:49:52.326Z,21.90
2023-04-13T14:52:18.743Z,21.86
2023-04-13T14:54:46.156Z,21.73
2023-04-13T14:57:12.721Z,21.69
2023-04-13T14:59:39.022Z,21.65
2023-04-13T15:02:05.523Z,21.52
2023-04-13T15:04:31.922Z,21.53
2023-04-13T15:06:58.194Z,21.53
2023-04-13T15:09:24.734Z,21.52
2023-04-13T15:11:51.130Z,21.54
2023-04-13T15:14:17.541Z,21.51
2023-04-13T15:16:43.977Z,21.52
2023-04-13T15:19:10.340Z,21.55
2023-04-13T15:21:36.850Z,21.66
2023-04-13T15:24:03.176Z,21.70
2023-04-13T15:26:29.514Z,21.73
2023-04-13T15:28:56.027Z,21.82
2023-04-13T15:31:22.531Z,21.84
2023-04-13T15:33:48.898Z,21.87
2023-04-13T15:36:15.303Z,21.87
2023-04-13T15:38:41.808Z,21.93
2023-04-13T15:41:08.155Z,22.05
2023-04-13T15:43:34.537Z,22.07
2023-04-13T15:46:00.967Z,22.01
2023-04-13T15:48:27.403Z,22.00
2023-04-13T15:50:53.805Z,22.01
2023-04-13T15:53:20.290Z,22.06
2023-04-13T15:55:47.011Z,22.04
2023-04-13T15:58:13.395Z,22.04
2023-04-13T16:00:39.818Z,22.06
2023-04-13T16:03:06.368Z,22.06
2023-04-13T16:05:32.643Z,22.04
2023-04-13T16:07:59.061Z,21.99
2023-04-13T16:10:25.424Z,21.97
2023-04-13T16:12:51.988Z,21.94
2023-04-13T16:15:18.413Z,21.90
2023-04-13T16:17:45.189Z,21.85
2023-04-13T16:20:11.538Z,21.81
2023-04-13T16:22:37.947Z,21.71
2023-04-13T16:25:04.454Z,21.67
2023-04-13T16:27:30.888Z,21.61
2023-04-13T16:29:58.491Z,21.52
2023-04-13T16:32:24.917Z,21.42
2023-04-13T16:34:51.354Z,21.38
2023-04-13T16:37:17.738Z,21.30
2023-04-13T16:39:44.116Z,21.18
2023-04-13T16:42:10.499Z,21.08
2023-04-13T16:44:37.088Z,20.97
2023-04-13T16:47:03.480Z,20.85
2023-04-13T16:49:29.882Z,20.75
2023-04-13T16:51:56.313Z,20.64
2023-04-13T16:54:22.689Z,20.59
2023-04-13T16:56:49.104Z,20.52
2023-04-13T16:59:15.595Z,20.44
2023-04-13T17:01:42.074Z,20.43
2023-04-13T17:04:08.471Z,20.37
2023-04-13T17:06:34.987Z,20.33
2023-04-13T17:09:01.527Z,20.26
2023-04-13T17:11:27.738Z,20.17
2023-04-13T17:13:54.175Z,20.06
2023-04-13T17:16:20.822Z,19.95
2023-04-13T17:18:47.165Z,19.86
2023-04-13T17:21:13.601Z,19.79
2023-04-13T17:23:40.031Z,19.71
2023-04-13T17:26:06.389Z,19.64
2023-04-13T17:28:33.054Z,19.58
2023-04-13T17:30:59.412Z,19.53
2023-04-13T17:33:25.801Z,19.46
2023-04-13T17:35:52.556Z,19.38
2023-04-13T17:38:19.045Z,19.34
2023-04-13T17:40:45.435Z,19.28
2023-04-13T17:43:11.891Z,19.26
2023-04-13T17:45:40.496Z,19.21
2023-04-13T17:48:04.718Z,19.16
2023-04-13T17:50:31.105Z,19.15
2023-04-13T17:52:57.516Z,19.17
2023-04-13T17:55:23.930Z,19.15
2023-04-13T17:57:50.489Z,19.11
2023-04-13T18:00:16.923Z,19.06
2023-04-13T18:02:43.415Z,18.99
2023-04-13T18:05:09.662Z,18.89
2023-04-13T18:07:36.035Z,18.75
2023-04-13T18:10:02.492Z,18.62
2023-04-13T18:12:28.861Z,18.55
2023-04-13T18:14:55.262Z,18.48
2023-04-13T18:17:21.796Z,18.41
2023-04-13T18:19:48.043Z,18.43
2023-04-13T18:22:15.240Z,18.41
2023-04-13T18:24:40.885Z,18.35
2023-04-13T18:27:07.249Z,18.27
2023-04-13T18:29:33.685Z,18.13
2023-04-13T18:32:00.046Z,18.17
2023-04-13T18:34:26.482Z,18.12
2023-04-13T18:36:52.892Z,18.01
2023-04-13T18:39:19.304Z,17.79
2023-04-13T18:41:45.685Z,17.65
2023-04-13T18:44:12.097Z,17.58
2023-04-13T18:46:38.611Z,17.51
2023-04-13T18:49:04.940Z,17.47
2023-04-13T18:51:31.342Z,17.34
2023-04-13T18:53:57.979Z,17.22
2023-04-13T18:56:24.182Z,17.07
2023-04-13T18:58:50.600Z,17.01
2023-04-13T19:01:17.001Z,16.98
2023-04-13T19:03:43.634Z,16.93
2023-04-13T19:06:09.853Z,16.93
2023-04-13T19:08:36.212Z,16.99
2023-04-13T19:11:02.584Z,17.00
2023-04-13T19:13:28.960Z,16.76
2023-04-13T19:15:57.479Z,16.56
2023-04-13T19:18:21.796Z,16.43
2023-04-13T19:20:48.234Z,16.23
2023-04-13T19:23:14.657Z,16.11
2023-04-13T19:25:41.080Z,16.03
2023-04-13T19:28:07.503Z,16.01
2023-04-13T19:30:34.010Z,15.98
2023-04-13T19:33:00.501Z,15.92
2023-04-13T19:35:27.097Z,15.85
2023-04-13T19:37:53.465Z,15.81
2023-04-13T19:40:19.955Z,15.73
2023-04-13T19:42:46.356Z,15.66
2023-04-13T19:45:12.739Z,15.60
2023-04-13T19:47:39.332Z,15.52
2023-04-13T19:50:05.564Z,15.49
2023-04-13T19:52:31.895Z,15.46
2023-04-13T19:54:58.286Z,15.43
2023-04-13T19:57:24.663Z,15.34
2023-04-13T19:59:51.108Z,15.27
2023-04-13T20:02:17.706Z,15.19
2023-04-13T20:04:44.134Z,14.98
2023-04-13T20:07:10.433Z,14.77
2023-04-13T20:09:36.849Z,14.67
2023-04-13T20:12:03.252Z,14.63
2023-04-13T20:14:29.633Z,14.54
2023-04-13T20:16:56.192Z,14.47
2023-04-13T20:19:22.574Z,14.45
2023-04-13T20:21:49.184Z,14.47
2023-04-13T20:24:15.600Z,14.46
2023-04-13T20:26:41.960Z,14.40
2023-04-13T20:29:08.522Z,14.37
2023-04-13T20:31:34.833Z,14.42
2023-04-13T20:34:01.274Z,14.42
2023-04-13T20:36:27.640Z,14.36
2023-04-13T20:38:54.067Z,14.29
2023-04-13T20:41:20.429Z,14.29
2023-04-13T20:43:46.875Z,14.32
2023-04-13T20:46:13.330Z,14.32
2023-04-13T20:51:06.123Z,14.19
2023-04-13T20:53:32.506Z,14.15
2023-04-13T20:55:58.871Z,14.15
2023-04-13T20:58:25.306Z,14.13
2023-04-13T21:00:51.735Z,14.16
2023-04-13T21:03:18.345Z,14.15
2023-04-13T21:05:44.576Z,14.10
2023-04-13T21:08:10.997Z,14.04
2023-04-13T21:10:37.563Z,14.01
2023-04-13T21:13:03.915Z,13.99
2023-04-13T21:15:30.333Z,13.95
2023-04-13T21:17:56.805Z,13.93
2023-04-13T21:20:23.357Z,13.89
2023-04-13T21:22:49.773Z,13.78
2023-04-13T21:25:16.153Z,13.71
2023-04-13T21:27:42.506Z,13.73
2023-04-13T21:30:08.946Z,13.73
2023-04-13T21:32:35.381Z,13.73
2023-04-13T21:35:02.067Z,13.72
2023-04-13T21:37:28.646Z,13.76
2023-04-13T21:39:55.019Z,13.82
2023-04-13T21:42:22.728Z,13.77
2023-04-13T21:44:47.871Z,13.71
2023-04-13T21:47:14.297Z,13.67
2023-04-13T21:49:40.666Z,13.63
2023-04-13T21:52:07.170Z,13.58
2023-04-13T21:54:33.595Z,13.59
2023-04-13T21:57:00.003Z,13.60
2023-04-13T21:59:26.557Z,13.53
2023-04-13T22:01:53.073Z,13.42
2023-04-13T22:04:19.445Z,13.50
2023-04-13T22:06:45.766Z,13.38
2023-04-13T22:09:12.381Z,13.31
2023-04-13T22:11:38.564Z,13.31
2023-04-13T22:14:04.987Z,13.36
2023-04-13T22:16:31.412Z,13.38
2023-04-13T22:18:58.009Z,13.37
2023-04-13T22:21:24.226Z,13.29
2023-04-13T22:23:50.773Z,13.37
2023-04-13T22:26:17.155Z,13.27
2023-04-13T22:28:43.582Z,13.27
2023-04-13T22:31:10.070Z,13.24
2023-04-13T22:33:36.524Z,13.17
2023-04-13T22:36:02.952Z,13.12
2023-04-13T22:38:29.321Z,13.11
2023-04-13T22:40:55.740Z,13.06
2023-04-13T22:43:22.215Z,13.08
2023-04-13T22:45:48.633Z,13.12
2023-04-13T22:48:15.032Z,13.02
2023-04-13T22:50:41.525Z,12.99
2023-04-13T22:53:07.935Z,13.03
2023-04-13T22:55:34.364Z,12.99
2023-04-13T22:58:00.782Z,13.07
2023-04-13T23:00:27.169Z,13.11
2023-04-13T23:02:53.751Z,13.09
2023-04-13T23:05:20.205Z,13.02
2023-04-13T23:07:46.643Z,13.00
2023-04-13T23:10:15.267Z,13.05
2023-04-13T23:12:39.775Z,13.02
2023-04-13T23:15:06.179Z,12.96
2023-04-13T23:17:32.584Z,12.96
2023-04-13T23:19:58.939Z,12.90
2023-04-13T23:22:25.371Z,12.84
2023-04-13T23:24:54.153Z,12.83
2023-04-13T23:27:20.577Z,12.78
2023-04-13T23:29:47.112Z,12.72
2023-04-13T23:32:13.586Z,12.70
2023-04-13T23:34:39.888Z,12.63
2023-04-13T23:37:06.325Z,12.60
2023-04-13T23:39:32.706Z,12.58
2023-04-13T23:41:59.077Z,12.57
2023-04-13T23:44:25.478Z,12.49
2023-04-13T23:46:51.880Z,12.56
2023-04-13T23:49:18.259Z,12.70
2023-04-13T23:51:44.661Z,13.07
2023-04-13T23:54:11.136Z,13.03
2023-04-13T23:56:37.544Z,12.94
2023-04-13T23:59:03.927Z,12.84
